Terminal Aerodrome Forecast
Issued by NWS

Home | Current Version | Previous Version | Text Only | Print | Product List | Glossary On
Versions: 1 2 3 4 5 6 7 8 9 10 11
000
FTUS45 KRIW 221700
TAFCPR
TAF
KCPR 221720Z 2218/2318 29012G20KT P6SM VCSH SCT030 BKN045
      TEMPO 2219/2222 3SM -SHSN SCT025 OVC045
     FM230500 30011KT P6SM VCSH SCT025 BKN040=

USA.gov is the U.S. government's official web portal to all federal, state and local government web resources and services.